createdAt,value
2024-01-15T07:51:10.096Z,96278.08
2024-01-15T07:53:39.342Z,96286.45
2024-01-15T07:56:07.837Z,96299.69
2024-01-15T07:58:36.529Z,96283.83
2024-01-15T08:01:05.885Z,96275.11
2024-01-15T08:03:34.763Z,96286.96
2024-01-15T08:06:07.052Z,96288.04
2024-01-15T08:08:35.621Z,96288.50
2024-01-15T08:11:04.284Z,96290.57
2024-01-15T08:13:32.794Z,96287.50
2024-01-15T08:16:01.345Z,96284.30
2024-01-15T08:18:30.154Z,96273.77
2024-01-15T08:20:58.956Z,96274.91
2024-01-15T08:23:32.721Z,96266.51
2024-01-15T08:26:03.528Z,96264.88
2024-01-15T08:28:32.529Z,96266.95
2024-01-15T08:31:02.034Z,96256.73
2024-01-15T08:33:31.032Z,96247.67
2024-01-15T08:35:59.755Z,96254.04
2024-01-15T08:38:28.459Z,96251.12
2024-01-15T08:41:00.188Z,96251.73
2024-01-15T08:43:29.190Z,96244.18
2024-01-15T08:45:58.431Z,96239.31
2024-01-15T08:48:28.808Z,96226.23
2024-01-15T08:50:58.301Z,96228.06
2024-01-15T08:53:29.391Z,96225.79
2024-01-15T08:55:57.991Z,96222.55
2024-01-15T08:58:26.824Z,96229.17
2024-01-15T09:00:57.926Z,96235.48
2024-01-15T09:03:26.953Z,96229.05
2024-01-15T09:05:56.687Z,96230.22
2024-01-15T09:08:26.144Z,96230.56
2024-01-15T09:10:54.820Z,96223.95
2024-01-15T09:13:26.440Z,96216.59
2024-01-15T09:15:55.251Z,96213.71
2024-01-15T09:18:26.744Z,96216.21
2024-01-15T09:20:56.008Z,96209.15
2024-01-15T09:23:29.827Z,96206.18
2024-01-15T09:25:58.762Z,96209.84
2024-01-15T09:28:29.765Z,96209.13
2024-01-15T09:30:58.426Z,96208.47
2024-01-15T09:33:28.484Z,96201.79
2024-01-15T09:36:05.361Z,96202.00
2024-01-15T09:38:34.050Z,96198.82
2024-01-15T09:41:02.657Z,96195.80
2024-01-15T09:43:31.614Z,96188.69
2024-01-15T09:46:00.467Z,96187.70
2024-01-15T09:48:29.400Z,96190.05
2024-01-15T09:51:02.126Z,96191.34
2024-01-15T09:53:31.374Z,96182.64
2024-01-15T09:56:00.113Z,96186.13
2024-01-15T09:58:31.880Z,96184.73
2024-01-15T10:01:05.093Z,96179.36
2024-01-15T10:03:35.850Z,96173.65
2024-01-15T10:06:09.215Z,96174.86
2024-01-15T10:08:41.454Z,96180.25
2024-01-15T10:11:10.092Z,96181.67
2024-01-15T10:13:41.938Z,96183.77
2024-01-15T10:16:10.706Z,96179.49
2024-01-15T10:18:41.020Z,96184.35
2024-01-15T10:21:10.877Z,96184.08
2024-01-15T10:23:39.771Z,96179.29
2024-01-15T10:26:08.846Z,96170.29
2024-01-15T10:31:39.831Z,96172.83
2024-01-15T10:34:17.296Z,96174.88
2024-01-15T10:36:58.862Z,96174.52
2024-01-15T10:39:31.601Z,96167.70
2024-01-15T10:42:00.474Z,96161.52
2024-01-15T10:44:32.540Z,96159.83
2024-01-15T10:47:02.180Z,96160.90
2024-01-15T10:49:35.810Z,96166.63
2024-01-15T10:52:05.529Z,96162.36
2024-01-15T10:54:38.079Z,96168.70
2024-01-15T10:57:11.168Z,96169.13
2024-01-15T10:59:40.824Z,96173.36
2024-01-15T11:02:10.110Z,96177.00
2024-01-15T11:04:39.149Z,96172.54
2024-01-15T11:07:09.061Z,96169.14
2024-01-15T11:09:38.529Z,96167.95
2024-01-15T11:12:15.312Z,96167.22
2024-01-15T11:14:48.815Z,96163.68
2024-01-15T11:17:19.950Z,96166.73
2024-01-15T11:19:54.657Z,96164.98
2024-01-15T11:22:35.480Z,96166.77
2024-01-15T11:25:24.626Z,96168.59
2024-01-15T11:27:56.719Z,96172.76
2024-01-15T11:30:29.005Z,96176.15
2024-01-15T11:32:58.089Z,96177.94
2024-01-15T11:35:52.510Z,96181.95
2024-01-15T11:38:33.279Z,96181.94
2024-01-15T11:41:03.141Z,96181.32
2024-01-15T11:43:34.379Z,96190.20
2024-01-15T11:46:05.404Z,96196.98
2024-01-15T11:48:46.108Z,96201.48
2024-01-15T11:51:23.192Z,96199.94
2024-01-15T11:53:59.244Z,96193.03
2024-01-15T11:56:28.251Z,96188.55
2024-01-15T11:58:57.881Z,96193.30
2024-01-15T12:01:26.836Z,96193.06
2024-01-15T12:04:00.243Z,96196.76
2024-01-15T12:06:29.310Z,96191.26
2024-01-15T12:09:10.520Z,96192.90
2024-01-15T12:11:45.363Z,96195.23
2024-01-15T12:14:17.676Z,96197.08
2024-01-15T12:16:46.342Z,96196.51
2024-01-15T12:19:16.809Z,96200.73
2024-01-15T12:21:46.401Z,96207.27
2024-01-15T12:24:15.046Z,96203.58
2024-01-15T12:26:43.613Z,96200.36
2024-01-15T12:29:13.043Z,96198.08
2024-01-15T12:31:41.732Z,96198.01
2024-01-15T12:34:10.543Z,96191.11
2024-01-15T12:36:39.109Z,96189.86
2024-01-15T12:39:12.988Z,96185.85
2024-01-15T12:41:41.602Z,96186.63
2024-01-15T12:44:10.230Z,96184.14
2024-01-15T12:46:38.873Z,96176.11
2024-01-15T12:49:09.790Z,96170.13
2024-01-15T12:51:43.083Z,96174.46
2024-01-15T12:54:11.732Z,96181.21
2024-01-15T12:56:40.474Z,96181.35
2024-01-15T12:59:09.625Z,96180.34
2024-01-15T13:01:38.491Z,96175.98
2024-01-15T13:04:10.262Z,96176.09
2024-01-15T13:06:38.921Z,96183.19
2024-01-15T13:09:07.538Z,96188.31
2024-01-15T13:11:36.076Z,96190.83
2024-01-15T13:14:04.781Z,96194.80
2024-01-15T13:16:33.387Z,96193.92
2024-01-15T13:19:02.064Z,96187.57
2024-01-15T13:21:31.714Z,96189.41
2024-01-15T13:24:00.321Z,96197.64
2024-01-15T13:26:29.183Z,96198.97
2024-01-15T13:28:57.727Z,96198.86
2024-01-15T13:31:26.426Z,96197.79
2024-01-15T13:33:57.403Z,96193.14
2024-01-15T13:36:27.173Z,96190.61
2024-01-15T13:38:56.115Z,96187.82
2024-01-15T13:41:28.666Z,96183.98
2024-01-15T13:43:57.407Z,96182.66
2024-01-15T13:46:30.671Z,96184.33
2024-01-15T13:48:59.709Z,96184.80
2024-01-15T13:51:28.441Z,96181.98
2024-01-15T13:53:57.003Z,96178.77
2024-01-15T13:56:25.592Z,96179.58
2024-01-15T13:58:54.187Z,96183.55
2024-01-15T14:01:22.891Z,96181.92
2024-01-15T14:03:51.676Z,96184.86
2024-01-15T14:06:20.356Z,96182.39
2024-01-15T14:08:48.996Z,96178.31
2024-01-15T14:11:17.582Z,96177.98
2024-01-15T14:13:46.890Z,96177.30
2024-01-15T14:16:18.446Z,96179.45
2024-01-15T14:18:54.520Z,96178.42
2024-01-15T14:21:23.289Z,96174.11
2024-01-15T14:23:52.003Z,96162.81
2024-01-15T14:26:20.572Z,96162.48
2024-01-15T14:28:51.898Z,96164.97
2024-01-15T14:31:22.021Z,96162.28
2024-01-15T14:33:50.711Z,96159.06
2024-01-15T14:36:19.537Z,96152.36
2024-01-15T14:38:50.064Z,96150.11
2024-01-15T14:41:18.654Z,96149.83
2024-01-15T14:43:49.570Z,96144.86
2024-01-15T14:46:18.322Z,96143.95
2024-01-15T14:48:47.063Z,96145.27
2024-01-15T14:51:15.803Z,96145.27
2024-01-15T14:53:45.388Z,96149.43
2024-01-15T14:56:17.459Z,96147.23
2024-01-15T14:58:47.194Z,96151.32
2024-01-15T15:01:16.613Z,96150.07
2024-01-15T15:03:45.817Z,96150.09
2024-01-15T15:06:19.776Z,96143.60
2024-01-15T15:08:51.207Z,96141.52
2024-01-15T15:11:19.794Z,96138.70
2024-01-15T15:13:50.791Z,96137.52
2024-01-15T15:16:19.526Z,96128.11
2024-01-15T15:18:48.731Z,96116.85
2024-01-15T15:21:17.922Z,96118.94
2024-01-15T15:23:46.705Z,96112.27
2024-01-15T15:26:15.702Z,96094.98
2024-01-15T15:28:44.250Z,96082.73
2024-01-15T15:31:13.444Z,96077.96
2024-01-15T15:33:43.235Z,96078.46
2024-01-15T15:36:15.154Z,96071.95
2024-01-15T15:38:43.786Z,96063.70
2024-01-15T15:41:13.922Z,96054.98
2024-01-15T15:43:42.765Z,96051.84
2024-01-15T15:46:11.396Z,96044.35
2024-01-15T15:48:40.242Z,96034.64
2024-01-15T15:51:09.160Z,96045.36
2024-01-15T15:53:37.913Z,96064.93
2024-01-15T15:56:08.800Z,96064.73
2024-01-15T15:58:41.607Z,96064.29
2024-01-15T16:01:10.404Z,96056.35
2024-01-15T16:03:39.665Z,96052.61
2024-01-15T16:06:08.637Z,96055.02
2024-01-15T16:08:40.047Z,96055.98
2024-01-15T16:11:09.013Z,96050.02
2024-01-15T16:13:39.848Z,96055.45
2024-01-15T16:23:10.092Z,96068.06
2024-01-15T16:23:23.282Z,96070.59
2024-01-15T16:23:38.640Z,96064.58
2024-01-15T16:24:51.220Z,96063.02
2024-01-15T16:27:24.657Z,96069.08
2024-01-15T16:29:53.736Z,96067.52
2024-01-15T16:32:22.371Z,96067.27
2024-01-15T16:34:51.210Z,96066.99
2024-01-15T16:37:19.872Z,96072.02
2024-01-15T16:39:51.951Z,96071.54
2024-01-15T16:42:22.059Z,96072.34
2024-01-15T16:44:51.123Z,96073.52
2024-01-15T16:47:22.304Z,96069.27
2024-01-15T16:49:52.304Z,96066.90
2024-01-15T16:52:21.235Z,96066.63
2024-01-15T16:54:49.959Z,96058.70
2024-01-15T16:57:18.735Z,96061.11
2024-01-15T16:59:47.948Z,96057.33
2024-01-15T17:02:16.694Z,96056.43
2024-01-15T17:04:48.438Z,96055.73
2024-01-15T17:07:18.065Z,96061.27
2024-01-15T17:09:46.608Z,96060.98
2024-01-15T17:12:15.174Z,96065.31
2024-01-15T17:14:43.860Z,96065.52
2024-01-15T17:17:12.583Z,96062.51
2024-01-15T17:19:45.479Z,96059.66
2024-01-15T17:22:15.505Z,96057.90
2024-01-15T17:24:44.040Z,96067.98
2024-01-15T17:27:12.611Z,96061.02
2024-01-15T17:29:41.922Z,96059.23
2024-01-15T17:32:10.778Z,96053.38
2024-01-15T17:34:40.131Z,96050.46
2024-01-15T17:37:08.788Z,96048.94
2024-01-15T17:39:37.801Z,96042.45
2024-01-15T17:42:09.558Z,96042.95
2024-01-15T17:44:38.190Z,96040.98
2024-01-15T17:47:07.103Z,96032.48
2024-01-15T17:49:35.727Z,96028.64
2024-01-15T17:52:05.295Z,96031.86
2024-01-15T17:54:34.283Z,96039.51
2024-01-15T17:57:03.023Z,96048.90
2024-01-15T17:59:31.963Z,96054.55
2024-01-15T18:02:01.394Z,96046.39
2024-01-15T18:04:30.032Z,96037.06
2024-01-15T18:06:58.556Z,96038.39
2024-01-15T18:09:27.027Z,96030.70
2024-01-15T18:12:00.219Z,96032.67
2024-01-15T18:14:29.858Z,96038.36
2024-01-15T18:16:58.521Z,96043.77
2024-01-15T18:19:27.140Z,96042.45
2024-01-15T18:21:55.673Z,96041.85
2024-01-15T18:24:26.481Z,96042.59
2024-01-15T18:26:55.096Z,96047.78
2024-01-15T18:29:25.265Z,96059.39
2024-01-15T18:31:54.053Z,96057.43
2024-01-15T18:34:22.584Z,96054.04
2024-01-15T18:36:52.719Z,96061.05
2024-01-15T18:39:21.161Z,96064.52
2024-01-15T18:41:49.674Z,96051.84
2024-01-15T18:44:18.421Z,96054.16
2024-01-15T18:46:47.156Z,96066.71
2024-01-15T18:49:17.876Z,96072.83
2024-01-15T18:51:47.406Z,96083.36
2024-01-15T18:54:16.644Z,96097.70
2024-01-15T18:56:45.798Z,96107.49
2024-01-15T18:59:14.583Z,96107.13
2024-01-15T19:01:44.574Z,96108.70
2024-01-15T19:04:13.559Z,96113.56
2024-01-15T19:06:43.172Z,96114.55
2024-01-15T19:09:12.716Z,96103.45
2024-01-15T19:11:45.934Z,96104.64
2024-01-15T19:14:17.694Z,96100.02
2024-01-15T19:16:47.727Z,96094.85
2024-01-15T19:19:16.713Z,96095.65
2024-01-15T19:21:47.518Z,96096.16
2024-01-15T19:24:17.398Z,96093.24
2024-01-15T19:26:46.621Z,96102.12
2024-01-15T19:29:17.769Z,96102.55
2024-01-15T19:31:46.224Z,96097.30
2024-01-15T19:34:14.933Z,96099.73
2024-01-15T19:36:45.867Z,96102.95
2024-01-15T19:39:14.359Z,96106.33
2024-01-15T19:41:43.620Z,96106.50
2024-01-15T19:44:12.082Z,96103.89
2024-01-15T19:46:41.458Z,96109.58
2024-01-15T19:49:15.610Z,96110.03
2024-01-15T19:51:44.821Z,96110.61
2024-01-15T19:54:13.632Z,96106.80
2024-01-15T19:56:42.311Z,96106.08
2024-01-15T19:59:11.048Z,96096.21
2024-01-15T20:01:41.977Z,96095.14
2024-01-15T20:04:14.495Z,96101.63
2024-01-15T20:06:43.440Z,96105.17
2024-01-15T20:09:18.037Z,96112.11
2024-01-15T20:11:47.194Z,96111.90
2024-01-15T20:14:20.443Z,96114.55
2024-01-15T20:16:49.057Z,96112.40
2024-01-15T20:19:28.674Z,96115.56
2024-01-15T20:21:57.748Z,96119.85
2024-01-15T20:24:27.597Z,96113.77
2024-01-15T20:26:59.029Z,96119.13
2024-01-15T20:29:30.264Z,96112.10
2024-01-15T20:31:59.341Z,96104.64
2024-01-15T20:34:28.617Z,96104.02
2024-01-15T20:36:58.272Z,96102.97
2024-01-15T20:39:27.140Z,96099.68
2024-01-15T20:41:55.944Z,96096.98
2024-01-15T20:44:25.932Z,96107.56
2024-01-15T20:46:56.937Z,96117.70
2024-01-15T20:49:27.316Z,96118.80
2024-01-15T20:51:55.918Z,96117.45
2024-01-15T20:54:24.544Z,96115.98
2024-01-15T20:56:53.241Z,96117.51
2024-01-15T20:59:21.882Z,96102.52
2024-01-15T21:01:53.305Z,96096.90
2024-01-15T21:04:23.441Z,96100.39
2024-01-15T21:06:57.397Z,96113.67
2024-01-15T21:09:29.112Z,96114.32
2024-01-15T21:11:57.725Z,96118.70
2024-01-15T21:14:26.338Z,96123.79
2024-01-15T21:16:54.872Z,96121.55
2024-01-15T21:19:24.434Z,96121.53
2024-01-15T21:21:58.226Z,96127.57
2024-01-15T21:24:29.183Z,96126.80
2024-01-15T21:27:00.977Z,96129.13
2024-01-15T21:29:29.624Z,96129.80
2024-01-15T21:32:04.055Z,96128.49
2024-01-15T21:34:37.352Z,96126.98
2024-01-15T21:37:08.878Z,96136.67
2024-01-15T21:39:38.592Z,96131.14
2024-01-15T21:42:07.386Z,96129.57
2024-01-15T21:44:39.177Z,96136.44
2024-01-15T21:47:08.478Z,96136.20
2024-01-15T21:49:40.150Z,96149.44
2024-01-15T21:52:11.575Z,96161.35
2024-01-15T21:54:40.140Z,96174.63
2024-01-15T21:57:09.137Z,96170.79
2024-01-15T21:59:38.043Z,96182.12
2024-01-15T22:02:10.099Z,96196.79
2024-01-15T22:04:38.976Z,96202.55
2024-01-15T22:07:10.676Z,96206.69
2024-01-15T22:09:42.065Z,96209.46
2024-01-15T22:12:11.429Z,96206.33
2024-01-15T22:14:40.125Z,96201.05
2024-01-15T22:17:08.721Z,96206.36
2024-01-15T22:19:37.402Z,96208.80
2024-01-15T22:22:10.516Z,96199.88
2024-01-15T22:24:39.864Z,96195.52
2024-01-15T22:27:08.550Z,96195.29
2024-01-15T22:29:37.752Z,96188.52
2024-01-15T22:32:06.584Z,96186.51
2024-01-15T22:34:35.474Z,96189.27
2024-01-15T22:37:06.026Z,96208.94
2024-01-15T22:39:34.733Z,96225.55
2024-01-15T22:42:03.355Z,96231.19
2024-01-15T22:44:31.993Z,96216.91
2024-01-15T22:47:00.851Z,96212.06
2024-01-15T22:49:29.569Z,96230.07
2024-01-15T22:51:58.259Z,96243.21
2024-01-15T22:54:27.110Z,96242.47
2024-01-15T22:56:55.819Z,96234.29
2024-01-15T22:59:26.818Z,96238.46
2024-01-15T23:01:55.349Z,96240.11
2024-01-15T23:04:23.914Z,96229.94
2024-01-15T23:06:55.001Z,96216.93
2024-01-15T23:09:27.254Z,96205.77
2024-01-15T23:11:55.783Z,96205.02
2024-01-15T23:14:24.328Z,96207.88
2024-01-15T23:16:55.642Z,96215.39
2024-01-15T23:19:24.265Z,96226.08
2024-01-15T23:21:53.560Z,96221.89
2024-01-15T23:24:22.094Z,96219.17
2024-01-15T23:26:55.328Z,96232.91
2024-01-15T23:29:23.995Z,96238.42
2024-01-15T23:31:52.597Z,96236.43
2024-01-15T23:34:21.213Z,96221.05
2024-01-15T23:36:53.583Z,96213.84
2024-01-15T23:39:22.998Z,96212.64
2024-01-15T23:41:53.051Z,96204.11
2024-01-15T23:44:21.734Z,96204.42
2024-01-15T23:46:53.520Z,96198.84
2024-01-15T23:49:24.565Z,96187.72
2024-01-15T23:51:54.061Z,96193.85
2024-01-15T23:54:22.608Z,96203.11
2024-01-15T23:56:53.429Z,96212.17
2024-01-15T23:59:22.163Z,96213.36
